Miami, Florida
Traffic Map
Current Weather Conditions
Miami, Florida
Scattered Clouds
Scattered Clouds
33°
Feels Like: 38°
Wind Chill: 33° Ceiling: Unl
Heat Index: 38° Visibility: 10mi
Dew Point: 23° Wind: 12mph
Humidity: 57% Direction: 90° (E)
Pressure: 30.1in Gusts: 0mph
Raw Report DataKMIA 211553Z 09010KT 060V130 10SM FEW036 SCT050 33/23 A3010 RMK AO2 SLP192 T03280233
Traffic Incident Summary
Active as of:
Severity:
Category:
InformationThere was an issue retrieving the traffic information for this location. Please try a different location or try again shortly.
Advertisements